Alta Vista, Kansas
Current Conditions -  °F | °C
As of 2:58 PM on Wednesday 17 Dec 2014 (Local Time) from KFRI Reporting Station
Overcast Overcast  
Wind Chill: 23°   Ceiling: 5500
Heat Index: 28°   Visibility: 10mi
Dew Point: 20°   Wind: 5mph
Humidity: 72%   Direction: 80°E
Pressure: 30.23"   Gusts: NA
Location:  38.86°N, 96.49°W
Report Text: KFRI 172058Z AUTO 08004KT 10SM OVC055 M02/M07 A3023 RMK AO2 SLP249 T10211066 57021
Loading
Personal Weather Stations






























Interactive Weather Map New forecast layout! Learn more

10-Day Weather Forecast

Advertisements
Track Severe Weather on mobile